Time;durP1;ratioP1;P1;durP2;ratioP2;P2;SDS_P1;SDS_P2;PMS_P1;PMS_P2;Temp;Humidity;BMP_temperature;BMP_pressure;BME280_temperature;BME280_humidity;BME280_pressure;Samples;Min_cycle;Max_cycle;Signal;HPM_P1;HPM_P2
2022/06/02 00:01:07;;;;;;;8.80;4.68;;;;;;;;;;5020211;28;20500;-51
2022/06/02 00:03:45;;;;;;;7.50;5.18;;;;;;;;;;5021509;28;20085;-51
2022/06/02 00:06:28;;;;;;;10.27;5.40;;;;;;;;;;5023023;28;20046;-66
2022/06/02 00:09:01;;;;;;;12.38;5.53;;;;;;;;;;5020015;28;20057;-50
2022/06/02 00:11:50;;;;;;;12.60;5.60;;;;;;;;;;5019088;28;20077;-50
2022/06/02 00:14:19;;;;;;;8.85;4.72;;;;;;;;;;5022294;28;20081;-50
2022/06/02 00:16:54;;;;;;;10.35;5.20;;;;;;;;;;5023256;28;20100;-53
2022/06/02 00:19:43;;;;;;;12.93;6.53;;;;;;;;;;5019138;28;20088;-53
2022/06/02 00:22:18;;;;;;;15.63;6.07;;;;;;;;;;5025579;28;20435;-49
2022/06/02 00:24:49;;;;;;;10.07;4.55;;;;;;;;;;5018490;28;20096;-59
2022/06/02 00:27:18;;;;;;;12.10;4.72;;;;;;;;;;5019419;28;20417;-63
2022/06/02 00:29:52;;;;;;;7.65;4.90;;;;;;;;;;5018306;28;20504;-63
2022/06/02 00:32:44;;;;;;;5.95;4.53;;;;;;;;;;5019296;28;20093;-62
2022/06/02 00:35:17;;;;;;;;;;;;;;;;;;5020417;28;20108;-62
2022/06/02 00:37:56;;;;;;;8.75;4.03;;;;;;;;;;5020067;28;19921;-62
2022/06/02 00:40:37;;;;;;;13.00;4.47;;;;;;;;;;5017325;28;20167;-62
2022/06/02 00:43:06;;;;;;;12.02;5.30;;;;;;;;;;5022313;28;20076;-59
2022/06/02 00:45:48;;;;;;;11.13;5.18;;;;;;;;;;5020559;28;20638;-53
2022/06/02 00:48:40;;;;;;;13.15;5.43;;;;;;;;;;5019186;28;20058;-50
2022/06/02 00:51:15;;;;;;;11.27;5.13;;;;;;;;;;5019715;28;20074;-53
2022/06/02 00:59:43;;;;;;;9.13;4.47;;;;;;;;;;5021470;28;20112;-65
2022/06/02 01:02:17;;;;;;;8.07;5.28;;;;;;;;;;5018520;28;20607;-58
2022/06/02 01:04:44;;;;;;;7.38;3.55;;;;;;;;;;5018457;28;20158;-59
2022/06/02 01:07:20;;;;;;;6.07;4.47;;;;;;;;;;5016709;28;20136;-59
2022/06/02 01:10:08;;;;;;;6.28;4.55;;;;;;;;;;5016943;28;20091;-59
2022/06/02 01:12:44;;;;;;;16.77;5.55;;;;;;;;;;5014908;28;20107;-58
2022/06/02 01:15:25;;;;;;;6.70;5.35;;;;;;;;;;5023022;28;20095;-59
2022/06/02 01:17:57;;;;;;;8.00;4.75;;;;;;;;;;5019527;28;20084;-63
2022/06/02 01:20:37;;;;;;;8.05;3.80;;;;;;;;;;5017260;28;20150;-47
2022/06/02 01:23:18;;;;;;;8.95;5.03;;;;;;;;;;5018780;28;20054;-59
2022/06/02 01:25:58;;;;;;;9.77;4.97;;;;;;;;;;5016234;28;20092;-59
2022/06/02 01:28:35;;;;;;;6.05;4.45;;;;;;;;;;5020036;28;20085;-59
2022/06/02 01:31:27;;;;;;;9.88;4.50;;;;;;;;;;5017053;28;20501;-58
2022/06/02 01:34:10;;;;;;;10.82;5.13;;;;;;;;;;5020530;28;20473;-59
2022/06/02 01:36:49;;;;;;;8.88;5.35;;;;;;;;;;5020087;28;20046;-66
2022/06/02 01:39:41;;;;;;;8.68;4.80;;;;;;;;;;5015264;28;20089;-51
2022/06/02 01:42:27;;;;;;;7.03;5.22;;;;;;;;;;5018214;28;20136;-53
2022/06/02 01:45:12;;;;;;;8.27;4.50;;;;;;;;;;5016319;28;20547;-51
2022/06/02 01:47:49;;;;;;;18.85;6.40;;;;;;;;;;5018990;28;20077;-51
2022/06/02 01:50:38;;;;;;;8.63;6.03;;;;;;;;;;5018068;28;20085;-49
2022/06/02 01:53:16;;;;;;;13.23;6.20;;;;;;;;;;5019103;28;20124;-52
2022/06/02 01:56:02;;;;;;;9.57;6.30;;;;;;;;;;5019008;28;20093;-52
2022/06/02 01:58:50;;;;;;;10.27;6.45;;;;;;;;;;5017781;28;20053;-65
2022/06/02 02:01:27;;;;;;;15.23;6.90;;;;;;;;;;5019327;28;20057;-65
2022/06/02 02:04:15;;;;;;;17.25;7.28;;;;;;;;;;5018214;28;20511;-66
2022/06/02 02:07:08;;;;;;;15.85;8.10;;;;;;;;;;5018902;28;20083;-66
2022/06/02 02:09:56;;;;;;;11.80;7.93;;;;;;;;;;5018122;28;20049;-65
2022/06/02 02:12:31;;;;;;;15.20;8.18;;;;;;;;;;5020617;28;20108;-66
2022/06/02 02:15:04;;;;;;;10.93;7.90;;;;;;;;;;5019506;28;20636;-57
2022/06/02 02:17:40;;;;;;;17.60;8.27;;;;;;;;;;5013205;28;20559;-63
2022/06/02 02:20:25;;;;;;;15.82;7.88;;;;;;;;;;5022602;28;20123;-62
2022/06/02 02:22:51;;;;;;;;;;;;;;;;;;5017679;28;20077;-63
2022/06/02 02:25:30;;;;;;;14.63;8.68;;;;;;;;;;5015669;28;19964;-63
2022/06/02 02:28:16;;;;;;;16.98;9.75;;;;;;;;;;5022284;28;20111;-62
2022/06/02 02:31:11;;;;;;;21.13;10.20;;;;;;;;;;5020465;28;20041;-63
2022/06/02 02:33:51;;;;;;;14.88;8.90;;;;;;;;;;5016213;28;20045;-62
2022/06/02 02:36:39;;;;;;;16.45;8.48;;;;;;;;;;5015854;28;20045;-63
2022/06/02 02:39:31;;;;;;;12.85;8.50;;;;;;;;;;5014983;28;20057;-62
2022/06/02 02:42:13;;;;;;;17.10;9.55;;;;;;;;;;5017771;28;20123;-63
2022/06/02 02:44:58;;;;;;;18.27;9.32;;;;;;;;;;5016117;28;20096;-63
2022/06/02 02:47:42;;;;;;;16.52;8.85;;;;;;;;;;5015886;28;20053;-62
2022/06/02 02:50:26;;;;;;;10.50;7.60;;;;;;;;;;5017973;28;20180;-50
2022/06/02 02:53:16;;;;;;;14.40;8.40;;;;;;;;;;5021521;28;20081;-62
2022/06/02 02:55:50;;;;;;;22.60;9.80;;;;;;;;;;5017898;28;20093;-63
2022/06/02 02:58:30;;;;;;;25.00;10.20;;;;;;;;;;5018084;28;20081;-63
2022/06/02 03:01:00;;;;;;;20.90;10.15;;;;;;;;;;5018959;28;20465;-62
2022/06/02 03:03:43;;;;;;;16.52;9.52;;;;;;;;;;5017597;28;20618;-62
2022/06/02 03:06:26;;;;;;;22.77;10.98;;;;;;;;;;5014859;28;20104;-62
2022/06/02 03:09:08;;;;;;;21.83;8.93;;;;;;;;;;5017788;28;20081;-58
2022/06/02 03:11:40;;;;;;;17.15;7.72;;;;;;;;;;5015085;28;20111;-66
2022/06/02 03:14:29;;;;;;;22.13;9.75;;;;;;;;;;5017532;28;20049;-66
2022/06/02 03:17:20;;;;;;;22.02;11.70;;;;;;;;;;5020288;28;20085;-66
2022/06/02 03:19:56;;;;;;;21.13;10.88;;;;;;;;;;5014731;28;20100;-67
2022/06/02 03:22:35;;;;;;;14.82;9.27;;;;;;;;;;5018518;28;20092;-67
2022/06/02 03:25:09;;;;;;;12.15;7.43;;;;;;;;;;5015306;28;20053;-66
2022/06/02 03:27:44;;;;;;;15.47;6.97;;;;;;;;;;5015660;28;20129;-58
2022/06/02 03:30:19;;;;;;;11.40;6.32;;;;;;;;;;5016950;28;20081;-66
2022/06/02 03:32:56;;;;;;;10.45;6.07;;;;;;;;;;5021776;28;20462;-67
2022/06/02 03:35:36;;;;;;;13.27;7.30;;;;;;;;;;5022591;28;20132;-66
2022/06/02 03:38:12;;;;;;;12.00;6.60;;;;;;;;;;5020528;28;20100;-66
2022/06/02 03:41:07;;;;;;;16.10;6.47;;;;;;;;;;5020386;28;20085;-66
2022/06/02 03:43:51;;;;;;;8.18;5.93;;;;;;;;;;5019170;28;20459;-67
2022/06/02 03:46:48;;;;;;;9.65;6.10;;;;;;;;;;5021009;28;20447;-53
2022/06/02 03:49:39;;;;;;;13.23;6.00;;;;;;;;;;5017215;28;20068;-52
2022/06/02 03:52:19;;;;;;;9.02;5.57;;;;;;;;;;5021257;28;20491;-48
2022/06/02 03:54:51;;;;;;;7.82;4.38;;;;;;;;;;5022155;28;20517;-51
2022/06/02 03:57:44;;;;;;;5.75;4.43;;;;;;;;;;5021243;28;20057;-52
2022/06/02 04:00:13;;;;;;;8.20;4.68;;;;;;;;;;5018669;28;20145;-52
2022/06/02 04:02:49;;;;;;;6.25;4.13;;;;;;;;;;5019307;28;20649;-53
2022/06/02 04:05:34;;;;;;;4.25;3.85;;;;;;;;;;5021039;28;20062;-58
2022/06/02 04:08:25;;;;;;;7.63;3.92;;;;;;;;;;5019675;28;20045;-62
2022/06/02 04:11:04;;;;;;;6.10;3.83;;;;;;;;;;5017760;28;20054;-62
2022/06/02 04:13:38;;;;;;;7.75;3.90;;;;;;;;;;5023900;28;20093;-61
2022/06/02 04:16:13;;;;;;;3.97;2.72;;;;;;;;;;5019978;28;20089;-62
2022/06/02 04:18:50;;;;;;;5.10;2.83;;;;;;;;;;5019083;28;20121;-62
2022/06/02 04:21:28;;;;;;;5.35;2.80;;;;;;;;;;5018089;28;20092;-61
2022/06/02 04:24:31;;;;;;;8.32;3.25;;;;;;;;;;5019232;28;20077;-58
2022/06/02 04:27:04;;;;;;;5.95;3.33;;;;;;;;;;4952811;28;20519;-53
2022/06/02 04:29:52;;;;;;;8.32;3.28;;;;;;;;;;5020930;28;20584;-53
2022/06/02 04:32:30;;;;;;;11.27;3.92;;;;;;;;;;5016605;28;20144;-53
2022/06/02 04:35:16;;;;;;;5.47;3.45;;;;;;;;;;5014310;28;20089;-50
2022/06/02 04:37:45;;;;;;;10.73;3.80;;;;;;;;;;5020624;28;20104;-48
2022/06/02 04:40:28;;;;;;;7.97;3.75;;;;;;;;;;5019089;28;20046;-65
2022/06/02 04:42:57;;;;;;;13.82;3.90;;;;;;;;;;5017838;28;20523;-58
2022/06/02 04:45:33;;;;;;;7.15;3.50;;;;;;;;;;5019566;28;20058;-57
2022/06/02 04:48:00;;;;;;;7.70;3.75;;;;;;;;;;5018693;28;20057;-57
2022/06/02 04:50:58;;;;;;;7.53;3.70;;;;;;;;;;5020091;28;20167;-58
2022/06/02 04:53:34;;;;;;;7.38;3.53;;;;;;;;;;4973830;28;21011;-58
2022/06/02 04:56:16;;;;;;;8.88;4.03;;;;;;;;;;5019695;28;20100;-58
2022/06/02 04:58:58;;;;;;;6.97;3.50;;;;;;;;;;5021953;28;20495;-53
2022/06/02 05:01:42;;;;;;;8.48;3.95;;;;;;;;;;5009320;28;20096;-58
2022/06/02 05:04:22;;;;;;;10.35;3.92;;;;;;;;;;5017894;28;20661;-59
2022/06/02 05:06:51;;;;;;;8.90;4.80;;;;;;;;;;5018414;28;20084;-58
2022/06/02 05:09:42;;;;;;;6.55;3.53;;;;;;;;;;5001705;28;20077;-59
2022/06/02 05:12:19;;;;;;;10.82;3.63;;;;;;;;;;5019156;28;20077;-59
2022/06/02 05:14:55;;;;;;;9.80;3.65;;;;;;;;;;5017253;28;20708;-59
2022/06/02 05:17:36;;;;;;;9.93;3.63;;;;;;;;;;5015793;28;20053;-68
2022/06/02 05:20:28;;;;;;;8.95;3.55;;;;;;;;;;5016012;28;20077;-57
2022/06/02 05:23:13;;;;;;;13.07;3.97;;;;;;;;;;5018863;28;20088;-58
2022/06/02 05:26:05;;;;;;;12.40;4.15;;;;;;;;;;5016366;28;20149;-58
2022/06/02 05:28:47;;;;;;;9.75;3.38;;;;;;;;;;5015349;28;20971;-57
2022/06/02 05:31:21;;;;;;;8.98;3.72;;;;;;;;;;5016118;28;20096;-59
2022/06/02 05:33:53;;;;;;;9.95;4.00;;;;;;;;;;5015740;28;20060;-58
2022/06/02 05:36:35;;;;;;;10.13;4.30;;;;;;;;;;5013637;28;20054;-47
2022/06/02 05:39:49;;;;;;;9.05;3.63;;;;;;;;;;5017922;28;20050;-51
2022/06/02 05:42:49;;;;;;;7.60;3.60;;;;;;;;;;4998728;28;20050;-53
2022/06/02 05:45:38;;;;;;;9.45;3.53;;;;;;;;;;4997785;28;20083;-52
2022/06/02 05:48:24;;;;;;;7.25;2.80;;;;;;;;;;4998873;28;20058;-52
2022/06/02 05:51:00;;;;;;;11.13;3.20;;;;;;;;;;4998672;28;20066;-52
2022/06/02 05:53:49;;;;;;;10.07;3.25;;;;;;;;;;4999427;28;20046;-53
2022/06/02 05:56:22;;;;;;;6.20;2.72;;;;;;;;;;4998850;28;20355;-58
2022/06/02 05:59:04;;;;;;;6.07;3.25;;;;;;;;;;4998406;28;20062;-58
2022/06/02 06:01:56;;;;;;;8.02;2.58;;;;;;;;;;4999309;28;20787;-59
2022/06/02 06:04:31;;;;;;;9.75;2.95;;;;;;;;;;4999120;28;20097;-57
2022/06/02 06:07:16;;;;;;;4.40;1.80;;;;;;;;;;4996208;28;20053;-59
2022/06/02 06:10:04;;;;;;;4.75;1.90;;;;;;;;;;4999821;28;20058;-58
2022/06/02 06:12:43;;;;;;;6.65;2.15;;;;;;;;;;4997756;28;20570;-59
2022/06/02 06:15:19;;;;;;;7.10;2.45;;;;;;;;;;4998022;28;20434;-63
2022/06/02 06:17:56;;;;;;;5.15;2.47;;;;;;;;;;4995914;28;20053;-63
2022/06/02 06:20:39;;;;;;;3.15;2.13;;;;;;;;;;4998858;28;20058;-63
2022/06/02 06:23:13;;;;;;;6.32;2.30;;;;;;;;;;4995129;28;20086;-63
2022/06/02 06:26:03;;;;;;;4.68;2.10;;;;;;;;;;4999288;28;20061;-63
2022/06/02 06:28:37;;;;;;;8.20;2.50;;;;;;;;;;4951878;28;20508;-63
2022/06/02 06:31:03;;;;;;;;;;;;;;;;;;4999784;28;20051;-68
2022/06/02 06:33:30;;;;;;;4.40;2.38;;;;;;;;;;4998375;28;20436;-48
2022/06/02 06:36:10;;;;;;;7.22;2.35;;;;;;;;;;4999550;28;20077;-50
2022/06/02 06:38:50;;;;;;;8.82;2.40;;;;;;;;;;5001536;28;20104;-53
2022/06/02 06:41:33;;;;;;;5.30;2.00;;;;;;;;;;4978068;28;20148;-49
2022/06/02 06:44:19;;;;;;;4.57;2.15;;;;;;;;;;4976648;28;20089;-50
2022/06/02 06:47:10;;;;;;;3.95;1.83;;;;;;;;;;4974925;28;20107;-50
2022/06/02 06:49:40;;;;;;;6.32;2.00;;;;;;;;;;4972879;28;20063;-62
2022/06/02 06:52:39;;;;;;;2.40;1.70;;;;;;;;;;4972613;28;20086;-62
2022/06/02 06:55:08;;;;;;;4.78;2.13;;;;;;;;;;4977509;28;20198;-62
2022/06/02 06:57:50;;;;;;;3.85;1.80;;;;;;;;;;4980146;28;20066;-62
2022/06/02 07:00:21;;;;;;;3.47;1.70;;;;;;;;;;4980352;28;20054;-62
2022/06/02 07:03:04;;;;;;;6.50;2.15;;;;;;;;;;4978389;28;20490;-62
2022/06/02 07:05:49;;;;;;;3.13;1.73;;;;;;;;;;4983565;28;20637;-62
2022/06/02 07:08:32;;;;;;;4.30;2.28;;;;;;;;;;4979450;28;20100;-62
2022/06/02 07:12:50;;;;;;;6.93;2.22;;;;;;;;;;4982277;28;20097;-62
2022/06/02 07:14:15;;;;;;;6.40;1.90;;;;;;;;;;4984021;28;20376;-62
2022/06/02 07:16:45;;;;;;;5.25;1.63;;;;;;;;;;4983325;28;20144;-62
2022/06/02 07:19:32;;;;;;;5.80;1.63;;;;;;;;;;4980181;28;20126;-62
2022/06/02 07:22:05;;;;;;;9.90;1.77;;;;;;;;;;4980064;28;20145;-62
2022/06/02 07:24:48;;;;;;;4.10;1.35;;;;;;;;;;4979948;28;20113;-62
2022/06/02 07:27:36;;;;;;;5.28;1.67;;;;;;;;;;4981612;28;20505;-58
2022/06/02 07:30:13;;;;;;;4.47;1.60;;;;;;;;;;4979465;28;20082;-62
2022/06/02 07:33:02;;;;;;;3.38;1.42;;;;;;;;;;4976844;28;20129;-62
2022/06/02 07:35:47;;;;;;;5.57;1.23;;;;;;;;;;4981330;28;20108;-61
2022/06/02 07:38:14;;;;;;;2.58;1.58;;;;;;;;;;4980030;28;20092;-62
2022/06/02 07:41:17;;;;;;;2.70;1.30;;;;;;;;;;4980194;28;20132;-62
2022/06/02 07:44:02;;;;;;;5.40;1.50;;;;;;;;;;4981832;28;20133;-62
2022/06/02 07:46:56;;;;;;;3.33;1.60;;;;;;;;;;4979972;28;20105;-59
2022/06/02 07:49:41;;;;;;;4.65;1.60;;;;;;;;;;4981088;28;20607;-60
2022/06/02 07:52:18;;;;;;;2.63;1.60;;;;;;;;;;4981321;28;20047;-60
2022/06/02 07:54:44;;;;;;;3.72;1.40;;;;;;;;;;4980518;28;20089;-59
2022/06/02 07:57:15;;;;;;;6.90;1.20;;;;;;;;;;4983441;28;20105;-59
2022/06/02 07:59:49;;;;;;;;;;;;;;;;;;4981662;28;20140;-59
2022/06/02 08:02:34;;;;;;;6.45;1.77;;;;;;;;;;4980644;28;19965;-60
2022/06/02 08:05:19;;;;;;;6.35;1.30;;;;;;;;;;4981639;28;20125;-59
2022/06/02 08:07:49;;;;;;;4.75;1.90;;;;;;;;;;4977967;28;20057;-59
2022/06/02 08:10:30;;;;;;;6.32;1.55;;;;;;;;;;4976268;28;20050;-59
2022/06/02 08:13:07;;;;;;;3.08;1.40;;;;;;;;;;4980507;28;20510;-59
2022/06/02 08:16:04;;;;;;;3.55;1.60;;;;;;;;;;4981597;28;20105;-59
2022/06/02 08:18:49;;;;;;;3.13;1.52;;;;;;;;;;4980790;28;20533;-58
2022/06/02 08:21:29;;;;;;;3.53;1.33;;;;;;;;;;4980653;28;20054;-61
2022/06/02 08:24:11;;;;;;;7.47;1.52;;;;;;;;;;4981711;28;20058;-61
2022/06/02 08:26:53;;;;;;;9.93;1.77;;;;;;;;;;4981641;28;20577;-61
2022/06/02 08:29:25;;;;;;;9.05;1.80;;;;;;;;;;4983235;28;20094;-62
2022/06/02 08:32:04;;;;;;;6.70;1.33;;;;;;;;;;4982376;28;20055;-61
2022/06/02 08:34:35;;;;;;;10.98;2.33;;;;;;;;;;4977581;28;20063;-61
2022/06/02 08:37:08;;;;;;;2.47;1.45;;;;;;;;;;4980359;28;20094;-61
2022/06/02 08:39:47;;;;;;;4.35;1.30;;;;;;;;;;4981381;28;20498;-59
2022/06/02 08:42:40;;;;;;;5.15;1.48;;;;;;;;;;4980436;28;20058;-58
2022/06/02 08:45:19;;;;;;;3.65;1.40;;;;;;;;;;4982704;28;20925;-59
2022/06/02 08:48:03;;;;;;;4.20;1.33;;;;;;;;;;4980830;28;20146;-59
2022/06/02 08:50:48;;;;;;;2.47;1.20;;;;;;;;;;4978397;28;20054;-59
2022/06/02 08:53:28;;;;;;;3.78;1.30;;;;;;;;;;4976115;28;20137;-57
2022/06/02 08:56:13;;;;;;;3.13;1.65;;;;;;;;;;4977019;28;20062;-59
2022/06/02 08:59:07;;;;;;;4.40;1.30;;;;;;;;;;4978293;28;20145;-62
2022/06/02 09:01:37;;;;;;;3.92;1.48;;;;;;;;;;4972268;28;20058;-58
2022/06/02 09:04:28;;;;;;;4.55;1.33;;;;;;;;;;4982015;28;20047;-59
2022/06/02 09:07:13;;;;;;;5.00;1.38;;;;;;;;;;4979688;28;20183;-59
2022/06/02 09:10:23;;;;;;;5.57;1.55;;;;;;;;;;4976741;28;20871;-58
2022/06/02 09:13:12;;;;;;;7.18;1.50;;;;;;;;;;4977077;28;20051;-58
2022/06/02 09:15:58;;;;;;;7.25;1.63;;;;;;;;;;4980379;28;20569;-53
2022/06/02 09:18:37;;;;;;;3.65;1.75;;;;;;;;;;4978559;28;20425;-58
2022/06/02 09:21:49;;;;;;;4.15;1.60;;;;;;;;;;4980584;28;20042;-62
2022/06/02 09:24:32;;;;;;;3.13;1.30;;;;;;;;;;4979382;28;20078;-62
2022/06/02 09:27:23;;;;;;;3.45;1.42;;;;;;;;;;4980129;28;20051;-61
2022/06/02 09:29:59;;;;;;;2.10;1.15;;;;;;;;;;4977137;28;20097;-62
2022/06/02 09:32:49;;;;;;;3.33;1.35;;;;;;;;;;4975906;28;20054;-62
2022/06/02 09:35:16;;;;;;;3.53;2.00;;;;;;;;;;4979392;28;20050;-59
2022/06/02 09:38:13;;;;;;;1.92;1.50;;;;;;;;;;4978506;28;20088;-59
2022/06/02 09:40:47;;;;;;;6.43;1.70;;;;;;;;;;4978289;28;20218;-59
2022/06/02 09:43:50;;;;;;;3.70;1.52;;;;;;;;;;4980199;28;20073;-59
2022/06/02 09:46:22;;;;;;;2.60;1.50;;;;;;;;;;4963689;28;20117;-59
2022/06/02 09:49:12;;;;;;;2.15;1.70;;;;;;;;;;4978099;28;20113;-59
2022/06/02 09:51:44;;;;;;;2.08;1.40;;;;;;;;;;4976926;28;20212;-58
2022/06/02 09:54:42;;;;;;;3.15;1.67;;;;;;;;;;4977105;28;20062;-72
2022/06/02 10:00:20;;;;;;;4.55;1.60;;;;;;;;;;4977710;28;20047;-70
2022/06/02 10:03:03;;;;;;;2.88;1.40;;;;;;;;;;4977763;28;20054;-71
2022/06/02 10:05:45;;;;;;;2.25;1.52;;;;;;;;;;4965943;28;20058;-68
2022/06/02 10:08:17;;;;;;;2.85;1.85;;;;;;;;;;4980460;28;20059;-72
2022/06/02 10:10:54;;;;;;;4.25;1.50;;;;;;;;;;4979268;28;20061;-72
2022/06/02 10:13:39;;;;;;;4.75;1.92;;;;;;;;;;4979787;28;20106;-68
2022/06/02 10:16:30;;;;;;;5.22;1.70;;;;;;;;;;4976721;28;20073;-62
2022/06/02 10:19:16;;;;;;;1.90;1.60;;;;;;;;;;4974693;28;20047;-62
2022/06/02 10:22:00;;;;;;;2.03;1.50;;;;;;;;;;4978654;28;20062;-61
2022/06/02 10:24:39;;;;;;;9.80;1.98;;;;;;;;;;4977285;28;20077;-61
2022/06/02 10:27:22;;;;;;;6.18;2.08;;;;;;;;;;4979672;28;20078;-61
2022/06/02 10:30:00;;;;;;;3.85;1.80;;;;;;;;;;4978364;28;20063;-60
2022/06/02 10:32:46;;;;;;;2.47;1.92;;;;;;;;;;4978920;28;20560;-50
2022/06/02 10:35:21;;;;;;;6.75;2.00;;;;;;;;;;4977468;28;20530;-50
2022/06/02 10:38:00;;;;;;;2.33;1.80;;;;;;;;;;4978917;28;20122;-51
2022/06/02 10:40:42;;;;;;;3.13;1.67;;;;;;;;;;4981869;28;20180;-52
2022/06/02 10:43:35;;;;;;;2.33;1.70;;;;;;;;;;4977985;28;20086;-48
2022/06/02 10:46:21;;;;;;;2.38;1.80;;;;;;;;;;4979935;28;20055;-52
2022/06/02 10:49:16;;;;;;;2.75;1.90;;;;;;;;;;4947930;28;20054;-61
2022/06/02 10:51:46;;;;;;;3.65;1.92;;;;;;;;;;4980060;28;20248;-58
2022/06/02 10:54:20;;;;;;;2.35;1.90;;;;;;;;;;4976792;28;20462;-59
2022/06/02 10:56:53;;;;;;;3.72;1.75;;;;;;;;;;4977158;28;20058;-59
2022/06/02 10:59:44;;;;;;;4.40;1.90;;;;;;;;;;4967949;28;20498;-59
2022/06/02 11:02:30;;;;;;;4.68;1.98;;;;;;;;;;4974311;28;20141;-58
2022/06/02 11:05:22;;;;;;;2.38;1.90;;;;;;;;;;4962822;28;20627;-58
2022/06/02 11:08:27;;;;;;;6.10;2.20;;;;;;;;;;4976414;28;20073;-49
2022/06/02 11:11:04;;;;;;;4.30;2.47;;;;;;;;;;4977230;28;20050;-52
2022/06/02 11:13:43;;;;;;;3.45;1.85;;;;;;;;;;4976724;28;20514;-47
2022/06/02 11:16:35;;;;;;;4.38;2.13;;;;;;;;;;4978095;28;20124;-52
2022/06/02 11:19:21;;;;;;;6.57;2.08;;;;;;;;;;4980056;28;20510;-53
2022/06/02 11:22:05;;;;;;;3.35;2.00;;;;;;;;;;4978994;28;20482;-52
2022/06/02 11:24:33;;;;;;;2.38;1.95;;;;;;;;;;4980391;28;20592;-51
2022/06/02 11:27:31;;;;;;;2.97;2.20;;;;;;;;;;4979005;28;20086;-59
2022/06/02 11:30:04;;;;;;;5.70;2.03;;;;;;;;;;4976313;28;20062;-59
2022/06/02 11:32:56;;;;;;;2.30;1.90;;;;;;;;;;4978143;28;20059;-60
2022/06/02 11:35:44;;;;;;;3.95;1.92;;;;;;;;;;4978907;28;20136;-59
2022/06/02 11:38:40;;;;;;;3.70;2.00;;;;;;;;;;4978541;28;20132;-58
2022/06/02 11:41:28;;;;;;;3.40;2.05;;;;;;;;;;4979928;28;20059;-58
2022/06/02 11:44:07;;;;;;;4.38;2.20;;;;;;;;;;4977319;28;20059;-59
2022/06/02 11:46:52;;;;;;;5.05;2.22;;;;;;;;;;4967625;28;20113;-52
2022/06/02 11:49:46;;;;;;;2.83;2.03;;;;;;;;;;4975777;28;20058;-51
2022/06/02 11:52:25;;;;;;;3.70;2.30;;;;;;;;;;4970208;28;20054;-53
2022/06/02 11:55:04;;;;;;;2.00;1.85;;;;;;;;;;4980613;28;20054;-51
2022/06/02 11:57:30;;;;;;;3.28;2.17;;;;;;;;;;4978402;28;20475;-52
2022/06/02 12:00:22;;;;;;;3.67;2.30;;;;;;;;;;4982705;28;20568;-51
2022/06/02 12:03:05;;;;;;;3.88;2.25;;;;;;;;;;4980354;28;20054;-50
2022/06/02 12:05:51;;;;;;;3.95;2.67;;;;;;;;;;4979149;28;20050;-49
2022/06/02 12:08:40;;;;;;;3.90;2.25;;;;;;;;;;4981820;28;20130;-52
2022/06/02 12:11:13;;;;;;;4.60;3.05;;;;;;;;;;4979390;28;20082;-49
2022/06/02 12:14:05;;;;;;;4.15;2.90;;;;;;;;;;4979226;28;20105;-51
2022/06/02 12:16:46;;;;;;;5.43;3.10;;;;;;;;;;4980689;28;20050;-51
2022/06/02 12:19:35;;;;;;;6.20;3.53;;;;;;;;;;4980006;28;20055;-49
2022/06/02 12:22:13;;;;;;;5.90;3.83;;;;;;;;;;4978414;28;20059;-59
2022/06/02 12:25:05;;;;;;;6.70;4.05;;;;;;;;;;4978986;28;20478;-59
2022/06/02 12:27:31;;;;;;;7.25;3.70;;;;;;;;;;4983227;28;20187;-60
2022/06/02 12:30:23;;;;;;;8.07;3.95;;;;;;;;;;4978832;28;20084;-60
2022/06/02 12:32:57;;;;;;;9.18;4.20;;;;;;;;;;4981624;28;20054;-60
2022/06/02 12:35:41;;;;;;;8.63;3.50;;;;;;;;;;4980225;28;20050;-60
2022/06/02 12:38:17;;;;;;;8.25;3.97;;;;;;;;;;4982262;28;20133;-53
2022/06/02 12:41:17;;;;;;;6.13;3.53;;;;;;;;;;4981496;28;20078;-59
2022/06/02 12:44:05;;;;;;;10.95;4.10;;;;;;;;;;4983133;28;20105;-59
2022/06/02 12:46:41;;;;;;;7.18;3.72;;;;;;;;;;4982148;28;20136;-59
2022/06/02 12:49:13;;;;;;;11.15;4.80;;;;;;;;;;4983226;28;20054;-59
2022/06/02 12:51:50;;;;;;;11.40;4.60;;;;;;;;;;4983733;28;20058;-59
2022/06/02 12:54:16;;;;;;;7.20;4.07;;;;;;;;;;4981550;28;20050;-58
2022/06/02 12:57:02;;;;;;;7.85;4.15;;;;;;;;;;4983483;28;20089;-59
2022/06/02 12:59:41;;;;;;;9.68;4.57;;;;;;;;;;4981619;28;20157;-59
2022/06/02 13:02:19;;;;;;;8.98;4.82;;;;;;;;;;4980851;28;20553;-59
2022/06/02 13:05:13;;;;;;;10.65;3.97;;;;;;;;;;4977742;28;20060;-59
2022/06/02 13:07:46;;;;;;;15.88;5.00;;;;;;;;;;4981842;28;20498;-59
2022/06/02 13:10:25;;;;;;;9.75;4.78;;;;;;;;;;4978702;28;20093;-59
2022/06/02 13:13:10;;;;;;;11.60;5.13;;;;;;;;;;4980844;28;20089;-59
2022/06/02 13:15:49;;;;;;;9.85;5.25;;;;;;;;;;4980413;28;20101;-72
2022/06/02 13:18:16;;;;;;;13.65;4.60;;;;;;;;;;4979153;28;20133;-52
2022/06/02 13:21:01;;;;;;;7.60;4.43;;;;;;;;;;4979175;28;20082;-54
2022/06/02 13:23:44;;;;;;;13.75;4.75;;;;;;;;;;4976120;28;20054;-50
2022/06/02 13:26:16;;;;;;;8.73;4.70;;;;;;;;;;4981142;28;20054;-54
2022/06/02 13:28:50;;;;;;;9.68;4.80;;;;;;;;;;4979907;28;20050;-55
2022/06/02 13:31:34;;;;;;;8.27;4.78;;;;;;;;;;4979568;28;20090;-52
2022/06/02 13:34:28;;;;;;;13.77;4.47;;;;;;;;;;4965920;28;20059;-72
2022/06/02 13:37:04;;;;;;;7.72;4.40;;;;;;;;;;4979231;28;20141;-51
2022/06/02 13:39:44;;;;;;;10.00;4.80;;;;;;;;;;4978952;28;20089;-53
2022/06/02 13:42:36;;;;;;;8.07;4.60;;;;;;;;;;4981115;28;20106;-53
2022/06/02 13:45:13;;;;;;;9.32;4.78;;;;;;;;;;4977228;28;20050;-48
2022/06/02 13:47:45;;;;;;;11.10;4.80;;;;;;;;;;4977570;28;20117;-48
2022/06/02 13:50:37;;;;;;;14.32;4.63;;;;;;;;;;4978718;28;20506;-51
2022/06/02 13:53:11;;;;;;;8.90;5.55;;;;;;;;;;4977835;28;20490;-71
2022/06/02 13:58:40;;;;;;;8.45;5.15;;;;;;;;;;4980387;28;20051;-61
2022/06/02 14:01:28;;;;;;;8.07;4.63;;;;;;;;;;4976825;28;20054;-61
2022/06/02 14:04:18;;;;;;;9.48;5.50;;;;;;;;;;4965363;28;20541;-62
2022/06/02 14:31:48;;;;;;;8.10;5.53;;;;;;;;;;4976626;28;20061;-52
2022/06/02 14:34:31;;;;;;;9.35;5.88;;;;;;;;;;4976060;28;20054;-53
2022/06/02 14:37:05;;;;;;;10.13;5.55;;;;;;;;;;4976422;28;20494;-53
2022/06/02 14:39:56;;;;;;;10.57;5.95;;;;;;;;;;4979481;28;20062;-51
2022/06/02 14:43:03;;;;;;;13.55;5.82;;;;;;;;;;4978835;28;20069;-53
2022/06/02 14:45:39;;;;;;;9.95;6.07;;;;;;;;;;4976527;28;20065;-55
2022/06/02 14:48:17;;;;;;;10.38;5.65;;;;;;;;;;4976063;28;20140;-59
2022/06/02 14:50:57;;;;;;;12.35;6.30;;;;;;;;;;4976802;28;20101;-59
2022/06/02 14:53:24;;;;;;;12.63;5.25;;;;;;;;;;4977214;28;20093;-59
2022/06/02 14:56:12;;;;;;;9.27;5.25;;;;;;;;;;4976500;28;20145;-60
2022/06/02 14:59:00;;;;;;;8.77;5.60;;;;;;;;;;4973606;28;20106;-59
2022/06/02 15:01:33;;;;;;;8.80;5.40;;;;;;;;;;4977744;28;20506;-60
2022/06/02 15:04:21;;;;;;;9.73;5.30;;;;;;;;;;4979341;28;20062;-58
2022/06/02 15:09:45;;;;;;;8.02;5.18;;;;;;;;;;5094925;23;20047;-57
2022/06/02 15:12:32;;;;;;;8.98;4.93;;;;;;;;;;4935874;28;20059;-56
2022/06/02 15:15:02;;;;;;;9.30;5.40;;;;;;;;;;4941418;28;20102;-58
2022/06/02 15:17:55;;;;;;;11.13;6.00;;;;;;;;;;4943401;28;20063;-58
2022/06/02 15:20:37;;;;;;;9.00;5.40;;;;;;;;;;4939798;28;20078;-58
2022/06/02 15:23:36;;;;;;;11.10;5.47;;;;;;;;;;4948988;28;20044;-47
2022/06/02 15:26:04;;;;;;;9.90;5.28;;;;;;;;;;4964157;28;20047;-55
2022/06/02 15:28:57;;;;;;;16.83;5.88;;;;;;;;;;4960538;28;20090;-50
2022/06/02 15:31:38;;;;;;;9.52;6.13;;;;;;;;;;4962045;28;20090;-47
2022/06/02 15:34:24;;;;;;;12.73;5.55;;;;;;;;;;4962279;28;20057;-47
2022/06/02 15:37:09;;;;;;;9.23;5.43;;;;;;;;;;4964494;28;20498;-50
2022/06/02 15:42:40;;;;;;;7.22;5.00;;;;;;;;;;5067978;23;20050;-59
2022/06/02 15:45:33;;;;;;;10.82;5.47;;;;;;;;;;5007649;28;20490;-59
2022/06/02 15:48:21;;;;;;;6.10;4.30;;;;;;;;;;5010143;28;20081;-59
2022/06/02 15:51:03;;;;;;;7.93;4.75;;;;;;;;;;5001392;28;20058;-59
2022/06/02 15:54:08;;;;;;;11.43;4.80;;;;;;;;;;5008646;28;20061;-58
2022/06/02 15:56:59;;;;;;;9.35;4.90;;;;;;;;;;4942173;28;20134;-67
2022/06/02 15:59:38;;;;;;;5.10;4.28;;;;;;;;;;4948728;28;20118;-55
2022/06/02 16:02:38;;;;;;;7.18;5.05;;;;;;;;;;4993142;28;20691;-57
2022/06/02 16:05:18;;;;;;;12.93;5.22;;;;;;;;;;5007535;28;20046;-55
2022/06/02 16:13:30;;;;;;;15.30;5.68;;;;;;;;;;5004429;28;20156;-56
2022/06/02 16:15:57;;;;;;;13.32;5.95;;;;;;;;;;5007985;28;20050;-59
2022/06/02 16:18:39;;;;;;;9.25;5.13;;;;;;;;;;5007996;28;20156;-50
2022/06/02 16:21:27;;;;;;;10.65;5.65;;;;;;;;;;5004272;28;20049;-52
2022/06/02 16:24:15;;;;;;;12.90;4.95;;;;;;;;;;5006692;28;20049;-48
2022/06/02 16:27:15;;;;;;;10.02;5.10;;;;;;;;;;5007631;28;20046;-53
2022/06/02 16:30:03;;;;;;;11.95;5.38;;;;;;;;;;5009567;28;20131;-45
2022/06/02 16:32:40;;;;;;;10.13;5.18;;;;;;;;;;4999013;28;20088;-60
2022/06/02 16:35:06;;;;;;;17.15;5.05;;;;;;;;;;5009307;28;20073;-66
2022/06/02 16:37:41;;;;;;;9.15;5.10;;;;;;;;;;5005838;28;20493;-47
2022/06/02 16:40:15;;;;;;;7.90;4.80;;;;;;;;;;5007194;28;20092;-48
2022/06/02 16:42:49;;;;;;;10.15;4.15;;;;;;;;;;5006541;28;20108;-46
2022/06/02 16:45:54;;;;;;;11.55;4.88;;;;;;;;;;5008497;28;20244;-50
2022/06/02 16:48:30;;;;;;;8.35;4.57;;;;;;;;;;5006991;28;20081;-51
2022/06/02 16:51:13;;;;;;;5.20;4.13;;;;;;;;;;5006937;28;20054;-49
2022/06/02 16:53:54;;;;;;;8.13;4.15;;;;;;;;;;5009145;28;20082;-67
2022/06/02 16:56:33;;;;;;;10.50;5.30;;;;;;;;;;5007452;28;20081;-66